Time;durP1;ratioP1;P1;durP2;ratioP2;P2;SDS_P1;SDS_P2;PMS_P1;PMS_P2;Temp;Humidity;BMP_temperature;BMP_pressure;BME280_temperature;BME280_humidity;BME280_pressure;Samples;Min_cycle;Max_cycle;Signal;HPM_P1;HPM_P2
2022/10/18 00:01:38;;;;;;;28.95;15.02;;;13.30;99.90;;;;;;5078244;28;20065;-95
2022/10/18 00:04:03;;;;;;;32.25;15.68;;;13.60;99.90;;;;;;5080957;28;20031;-95
2022/10/18 00:06:29;;;;;;;32.72;15.77;;;13.20;99.90;;;;;;5066253;28;20130;-95
2022/10/18 00:08:55;;;;;;;39.65;16.35;;;14.00;99.90;;;;;;5068337;28;20044;-93
2022/10/18 00:11:20;;;;;;;34.78;16.48;;;13.20;99.90;;;;;;5085336;28;20051;-95
2022/10/18 00:13:46;;;;;;;26.40;14.65;;;13.20;99.90;;;;;;5068888;28;20043;-96
2022/10/18 00:16:15;;;;;;;29.88;15.85;;;13.80;99.90;;;;;;5085726;28;20069;-94
2022/10/18 00:18:41;;;;;;;38.67;15.30;;;13.10;99.90;;;;;;5091843;28;20054;-95
2022/10/18 00:21:11;;;;;;;31.27;15.90;;;13.10;99.90;;;;;;5099546;28;20032;-94
2022/10/18 00:23:36;;;;;;;42.35;16.33;;;13.10;99.90;;;;;;5093259;28;20063;-95
2022/10/18 00:26:23;;;;;;;35.90;16.85;;;13.30;99.90;;;;;;5058268;28;20086;-94
2022/10/18 00:28:51;;;;;;;26.23;15.75;;;13.10;99.90;;;;;;5091811;28;20051;-95
2022/10/18 00:31:20;;;;;;;36.88;17.63;;;13.40;99.90;;;;;;5090430;28;20031;-94
2022/10/18 00:33:50;;;;;;;39.47;17.63;;;13.00;99.90;;;;;;5093953;28;20046;-95
2022/10/18 00:36:16;;;;;;;28.35;16.15;;;13.80;99.90;;;;;;5090655;28;20071;-94
2022/10/18 00:38:43;;;;;;;44.85;18.90;;;13.10;99.90;;;;;;5091561;28;20062;-95
2022/10/18 00:41:12;;;;;;;42.15;19.45;;;13.40;99.90;;;;;;5091979;28;20079;-95
2022/10/18 00:44:04;;;;;;;60.60;22.83;;;13.10;99.90;;;;;;5092772;28;20039;-94
2022/10/18 00:46:35;;;;;;;63.20;22.73;;;13.10;99.90;;;;;;5094012;28;20036;-94
2022/10/18 00:49:19;;;;;;;49.95;23.40;;;13.20;99.90;;;;;;5093545;28;20039;-95
2022/10/18 00:51:55;;;;;;;66.63;23.75;;;13.20;99.90;;;;;;5099393;28;20047;-93
2022/10/18 00:54:22;;;;;;;56.78;23.63;;;13.10;99.90;;;;;;5102090;28;20035;-90
2022/10/18 00:56:49;;;;;;;78.53;26.15;;;13.20;99.90;;;;;;5095839;28;20050;-94
2022/10/18 00:59:16;;;;;;;75.47;27.27;;;13.20;99.90;;;;;;5069937;28;20044;-94
2022/10/18 01:01:43;;;;;;;61.60;24.30;;;13.20;99.90;;;;;;5093308;28;20057;-95
2022/10/18 01:04:09;;;;;;;77.60;26.35;;;13.20;99.90;;;;;;5088607;28;20187;-95
2022/10/18 01:06:56;;;;;;;47.63;23.05;;;13.60;99.90;;;;;;5085333;28;20039;-95
2022/10/18 01:09:31;;;;;;;74.35;25.75;;;13.20;99.90;;;;;;5099020;28;20059;-94
2022/10/18 01:12:02;;;;;;;58.47;22.13;;;13.30;99.90;;;;;;5102676;28;20040;-95
2022/10/18 01:14:53;;;;;;;86.10;25.13;;;13.20;99.90;;;;;;5098343;28;20130;-94
2022/10/18 01:17:44;;;;;;;99.72;24.75;;;13.20;99.90;;;;;;5098709;28;20055;-94
2022/10/18 01:20:15;;;;;;;98.45;24.65;;;13.20;99.90;;;;;;5098450;28;20081;-95
2022/10/18 01:22:48;;;;;;;104.35;25.83;;;13.10;99.90;;;;;;5095062;28;20039;-95
2022/10/18 01:25:51;;;;;;;112.32;28.40;;;13.20;99.90;;;;;;5096412;28;20043;-95
2022/10/18 01:28:28;;;;;;;70.43;21.92;;;13.20;99.90;;;;;;5093986;28;20144;-95
2022/10/18 01:31:00;;;;;;;64.43;21.40;;;13.10;99.90;;;;;;5093673;28;20399;-95
2022/10/18 01:33:33;;;;;;;98.10;18.43;;;13.10;99.90;;;;;;5096912;28;20263;-95
2022/10/18 01:36:10;;;;;;;108.30;24.35;;;13.10;99.90;;;;;;5094071;28;20289;-95
2022/10/18 01:38:38;;;;;;;38.92;21.80;;;13.10;99.90;;;;;;5110261;28;20047;-95
2022/10/18 01:41:05;;;;;;;211.82;32.50;;;13.50;99.90;;;;;;5102140;28;20459;-95
2022/10/18 01:43:32;;;;;;;270.80;35.80;;;13.50;99.90;;;;;;5093005;28;20038;-96
2022/10/18 01:46:00;;;;;;;108.80;22.85;;;14.00;99.90;;;;;;5097893;28;20039;-94
2022/10/18 01:48:26;;;;;;;374.20;42.92;;;13.60;99.90;;;;;;5081008;28;20470;-94
2022/10/18 01:50:53;;;;;;;69.97;21.25;;;13.10;99.90;;;;;;5088937;28;20035;-94
2022/10/18 01:53:25;;;;;;;150.75;24.35;;;13.10;99.90;;;;;;5079774;28;20046;-95
2022/10/18 01:56:10;;;;;;;157.02;28.02;;;13.10;99.90;;;;;;5114409;28;20047;-94
2022/10/18 01:58:44;;;;;;;222.30;30.90;;;13.10;99.90;;;;;;5111868;28;20047;-94
2022/10/18 02:01:24;;;;;;;290.88;37.95;;;13.10;99.90;;;;;;5114985;28;20494;-94
2022/10/18 02:03:55;;;;;;;134.15;23.20;;;13.10;99.90;;;;;;5095442;28;20410;-95
2022/10/18 02:06:34;;;;;;;138.90;26.30;;;13.10;99.90;;;;;;5095461;28;20095;-95
2022/10/18 02:09:29;;;;;;;268.08;34.58;;;13.70;99.90;;;;;;5095068;28;20044;-94
2022/10/18 02:11:56;;;;;;;196.98;27.20;;;13.10;99.90;;;;;;5095965;28;20504;-95
2022/10/18 02:14:24;;;;;;;186.90;28.52;;;13.20;99.90;;;;;;5077798;28;20086;-95
2022/10/18 02:16:57;;;;;;;228.07;30.70;;;13.70;99.90;;;;;;5077589;28;20521;-95
2022/10/18 02:19:37;;;;;;;143.93;23.90;;;14.20;99.90;;;;;;5093886;28;20048;-95
2022/10/18 02:22:05;;;;;;;84.65;21.90;;;13.20;99.90;;;;;;5093802;28;20047;-94
2022/10/18 02:24:37;;;;;;;186.43;27.95;;;13.50;99.90;;;;;;5077783;28;20082;-94
2022/10/18 02:27:03;;;;;;;132.13;23.77;;;13.10;99.90;;;;;;5093825;28;20046;-95
2022/10/18 02:29:29;;;;;;;87.20;21.05;;;13.50;99.90;;;;;;5094886;28;20111;-95
2022/10/18 02:32:07;;;;;;;189.15;28.90;;;13.20;99.90;;;;;;5059802;28;20044;-95
2022/10/18 02:34:45;;;;;;;123.05;24.45;;;13.10;99.90;;;;;;5093901;28;20495;-96
2022/10/18 02:37:14;;;;;;;67.75;18.50;;;13.10;99.90;;;;;;5094132;28;20040;-95
2022/10/18 02:39:46;;;;;;;201.18;31.67;;;13.10;99.90;;;;;;5093532;28;20070;-95
2022/10/18 02:42:13;;;;;;;82.97;20.27;;;13.00;99.90;;;;;;5104023;28;20051;-95
2022/10/18 02:44:39;;;;;;;95.35;21.27;;;13.00;99.90;;;;;;5071053;28;20090;-95
2022/10/18 02:47:07;;;;;;;116.53;22.05;;;13.00;99.90;;;;;;5071684;28;20047;-95
2022/10/18 02:49:33;;;;;;;65.90;18.80;;;13.20;99.90;;;;;;5087854;28;20047;-96
2022/10/18 02:51:58;;;;;;;61.45;17.77;;;13.30;99.90;;;;;;5086227;28;20070;-95
2022/10/18 02:54:24;;;;;;;142.45;27.83;;;12.90;99.90;;;;;;5061851;28;20051;-95
2022/10/18 02:56:50;;;;;;;73.07;18.98;;;13.30;99.90;;;;;;5075965;28;20100;-94
2022/10/18 02:59:16;;;;;;;163.73;27.60;;;12.80;99.90;;;;;;5060195;28;20209;-94
2022/10/18 03:01:41;;;;;;;145.98;25.58;;;12.80;99.90;;;;;;5094740;28;20049;-93
2022/10/18 03:04:07;;;;;;;206.75;28.88;;;12.80;99.90;;;;;;5081973;28;20103;-94
2022/10/18 03:06:33;;;;;;;36.13;17.60;;;12.80;99.90;;;;;;5080943;28;20045;-95
2022/10/18 03:09:04;;;;;;;45.50;17.63;;;12.70;99.90;;;;;;5114191;28;20491;-95
2022/10/18 03:11:30;;;;;;;177.38;29.75;;;12.70;99.90;;;;;;5065260;28;20263;-95
2022/10/18 03:13:58;;;;;;;38.92;18.83;;;12.70;99.90;;;;;;5079752;28;20104;-95
2022/10/18 03:16:25;;;;;;;71.35;20.80;;;12.70;99.90;;;;;;5064196;28;20043;-94
2022/10/18 03:18:51;;;;;;;114.57;22.35;;;12.70;99.90;;;;;;5063011;28;20093;-96
2022/10/18 03:21:17;;;;;;;72.18;20.48;;;12.70;99.90;;;;;;5080799;28;20043;-95
2022/10/18 03:23:45;;;;;;;42.58;19.10;;;12.70;99.90;;;;;;5080405;28;20122;-94
2022/10/18 03:26:11;;;;;;;113.60;24.20;;;13.70;99.90;;;;;;5079468;28;20071;-96
2022/10/18 03:28:37;;;;;;;126.07;24.55;;;12.70;99.90;;;;;;5063112;28;20502;-96
2022/10/18 03:31:04;;;;;;;102.50;23.50;;;12.70;99.90;;;;;;5061295;28;20044;-95
2022/10/18 03:33:31;;;;;;;69.88;19.73;;;12.60;99.90;;;;;;5080375;28;20103;-96
2022/10/18 03:35:57;;;;;;;99.97;24.10;;;12.60;99.90;;;;;;5078666;28;20066;-95
2022/10/18 03:38:23;;;;;;;83.90;20.00;;;12.70;99.90;;;;;;5079898;28;20039;-96
2022/10/18 03:40:48;;;;;;;141.70;28.08;;;12.60;99.90;;;;;;5094219;28;20094;-95
2022/10/18 03:43:14;;;;;;;178.80;28.75;;;12.60;99.90;;;;;;5078398;28;20044;-95
2022/10/18 03:45:40;;;;;;;64.82;20.83;;;12.60;99.90;;;;;;5061013;28;20057;-95
2022/10/18 03:48:07;;;;;;;105.00;24.17;;;12.70;99.90;;;;;;5075901;28;20048;-94
2022/10/18 03:50:33;;;;;;;106.78;22.92;;;12.60;99.90;;;;;;5078104;28;20040;-95
2022/10/18 03:52:59;;;;;;;99.55;24.50;;;12.90;99.90;;;;;;5060647;28;20042;-96
2022/10/18 03:55:25;;;;;;;122.13;25.65;;;12.60;99.90;;;;;;5062042;28;20069;-95
2022/10/18 03:57:51;;;;;;;107.47;24.63;;;12.60;99.90;;;;;;5060020;28;20044;-93
2022/10/18 04:00:17;;;;;;;67.18;20.73;;;12.60;99.90;;;;;;5062694;28;20046;-95
2022/10/18 04:02:43;;;;;;;134.20;27.23;;;11.80;99.90;;;;;;5078120;28;20039;-95
2022/10/18 04:05:09;;;;;;;85.97;21.65;;;13.10;99.90;;;;;;5094982;28;20086;-96
2022/10/18 04:07:35;;;;;;;61.83;20.55;;;13.30;99.90;;;;;;5062002;28;20062;-95
2022/10/18 04:10:01;;;;;;;64.03;20.95;;;12.60;99.90;;;;;;5077796;28;20040;-94
2022/10/18 04:12:27;;;;;;;117.53;24.92;;;12.60;99.90;;;;;;5078713;28;20046;-94
2022/10/18 04:14:53;;;;;;;77.60;18.73;;;12.60;99.90;;;;;;5093754;28;20046;-96
2022/10/18 04:17:18;;;;;;;59.40;19.10;;;12.60;99.90;;;;;;5094666;28;20047;-96
2022/10/18 04:19:45;;;;;;;81.45;21.48;;;12.50;99.90;;;;;;5094564;28;20043;-96
2022/10/18 04:22:11;;;;;;;35.88;17.80;;;12.50;99.90;;;;;;5077303;28;20095;-95
2022/10/18 04:24:37;;;;;;;75.28;21.25;;;12.50;99.90;;;;;;5094106;28;20130;-95
2022/10/18 04:27:06;;;;;;;37.15;16.58;;;12.40;99.90;;;;;;5094153;28;20050;-95
2022/10/18 04:29:32;;;;;;;76.07;22.15;;;11.90;99.90;;;;;;5095126;28;20450;-95
2022/10/18 04:31:58;;;;;;;65.28;18.40;;;12.40;99.90;;;;;;5093506;28;20095;-95
2022/10/18 04:34:23;;;;;;;110.22;23.65;;;12.90;99.90;;;;;;5062481;28;20172;-93
2022/10/18 04:36:49;;;;;;;50.08;17.73;;;13.10;99.90;;;;;;5095403;28;20041;-95
2022/10/18 04:39:18;;;;;;;96.55;21.35;;;12.90;99.90;;;;;;5082049;28;20063;-94
2022/10/18 04:41:44;;;;;;;44.53;18.27;;;12.40;99.90;;;;;;5059891;28;20044;-93
2022/10/18 04:44:09;;;;;;;113.82;24.58;;;12.40;99.90;;;;;;5093441;28;20039;-93
2022/10/18 04:46:35;;;;;;;45.10;17.25;;;13.20;99.90;;;;;;5059139;28;20046;-93
2022/10/18 04:49:01;;;;;;;55.85;18.98;;;12.40;99.90;;;;;;5086122;28;20046;-91
2022/10/18 04:51:28;;;;;;;55.22;17.60;;;12.40;99.90;;;;;;5114388;28;20551;-92
2022/10/18 04:53:54;;;;;;;34.92;16.73;;;12.30;99.90;;;;;;5114169;28;20038;-93
2022/10/18 04:56:20;;;;;;;79.05;20.33;;;12.70;99.90;;;;;;5097957;28;20027;-92
2022/10/18 04:58:46;;;;;;;43.90;17.15;;;12.70;99.90;;;;;;5096700;28;20097;-92
2022/10/18 05:01:12;;;;;;;76.47;20.15;;;12.20;99.90;;;;;;5080599;28;20023;-94
2022/10/18 05:03:38;;;;;;;62.47;21.90;;;12.80;99.90;;;;;;5097589;28;20032;-93
2022/10/18 05:06:04;;;;;;;54.20;20.40;;;12.70;99.90;;;;;;5096791;28;20051;-93
2022/10/18 05:08:31;;;;;;;35.38;18.55;;;12.20;99.90;;;;;;5097309;28;20677;-94
2022/10/18 05:10:57;;;;;;;52.25;20.90;;;12.20;99.90;;;;;;5096685;28;20028;-95
2022/10/18 05:13:24;;;;;;;43.78;19.42;;;13.10;99.90;;;;;;5113500;28;20024;-91
2022/10/18 05:15:50;;;;;;;39.83;18.83;;;12.20;99.90;;;;;;5096233;28;20031;-91
2022/10/18 05:18:16;;;;;;;35.20;17.38;;;12.00;99.90;;;;;;5112769;28;20043;-94
2022/10/18 05:20:41;;;;;;;40.17;17.25;;;12.10;99.90;;;;;;5102159;28;20501;-92
2022/10/18 05:23:10;;;;;;;35.40;17.15;;;12.00;99.90;;;;;;5077771;28;20043;-92
2022/10/18 05:25:40;;;;;;;45.42;16.88;;;12.80;99.90;;;;;;5094841;28;20107;-91
2022/10/18 05:28:06;;;;;;;32.88;15.98;;;11.90;99.90;;;;;;5076705;28;20397;-92
2022/10/18 05:30:32;;;;;;;24.90;13.75;;;12.40;99.90;;;;;;5077000;28;20047;-93
2022/10/18 05:32:58;;;;;;;41.45;16.23;;;11.80;99.90;;;;;;5093865;28;20052;-90
2022/10/18 05:35:24;;;;;;;36.88;15.75;;;11.80;99.90;;;;;;5077505;28;20044;-91
2022/10/18 05:37:49;;;;;;;32.50;15.30;;;11.80;99.90;;;;;;5094708;28;20048;-90
2022/10/18 05:40:15;;;;;;;30.67;13.55;;;11.70;99.90;;;;;;5077277;28;20051;-96
2022/10/18 05:42:41;;;;;;;24.15;13.98;;;11.70;99.90;;;;;;5070384;28;20075;-96
2022/10/18 05:45:08;;;;;;;23.95;12.23;;;12.60;99.90;;;;;;5103303;28;20068;-96
2022/10/18 05:47:34;;;;;;;30.88;14.30;;;11.60;99.90;;;;;;5105275;28;20063;-96
2022/10/18 05:49:59;;;;;;;39.60;16.83;;;11.50;99.90;;;;;;5087205;28;20054;-96
2022/10/18 05:52:25;;;;;;;60.05;21.17;;;11.50;99.90;;;;;;5107199;28;20067;-96
2022/10/18 05:54:51;;;;;;;51.63;17.38;;;10.40;99.90;;;;;;5106500;28;20101;-96
2022/10/18 05:57:17;;;;;;;45.30;17.27;;;12.40;99.90;;;;;;5094931;28;20036;-96
2022/10/18 05:59:43;;;;;;;65.35;17.40;;;12.50;99.90;;;;;;5111039;28;20084;-96
2022/10/18 06:02:11;;;;;;;25.17;14.02;;;11.40;99.90;;;;;;5097894;28;20063;-93
2022/10/18 06:04:38;;;;;;;50.20;16.15;;;11.40;99.90;;;;;;5114269;28;20040;-93
2022/10/18 06:07:08;;;;;;;22.67;13.32;;;11.40;99.90;;;;;;5073417;28;20039;-96
2022/10/18 06:09:34;;;;;;;31.90;12.95;;;11.20;99.90;;;;;;5091724;28;20040;-96
2022/10/18 06:11:59;;;;;;;52.50;14.75;;;12.10;99.90;;;;;;5096305;28;20074;-96
2022/10/18 06:14:25;;;;;;;49.47;14.25;;;11.40;99.90;;;;;;5092478;28;20051;-96
2022/10/18 06:16:51;;;;;;;27.23;11.70;;;11.30;99.90;;;;;;5063628;28;20047;-96
2022/10/18 06:19:16;;;;;;;45.72;11.98;;;11.30;99.90;;;;;;5094874;28;20047;-96
2022/10/18 06:21:43;;;;;;;26.05;10.13;;;11.30;99.90;;;;;;5078180;28;20040;-96
2022/10/18 06:24:08;;;;;;;27.23;12.18;;;12.30;99.90;;;;;;5078066;28;20043;-96
2022/10/18 06:26:34;;;;;;;37.53;11.95;;;11.30;99.90;;;;;;5059791;28;20039;-96
2022/10/18 06:29:00;;;;;;;33.28;12.27;;;11.20;99.90;;;;;;5077152;28;20114;-96
2022/10/18 06:31:26;;;;;;;24.60;12.00;;;11.10;99.90;;;;;;5076017;28;20047;-96
2022/10/18 06:33:51;;;;;;;23.55;10.25;;;11.10;99.90;;;;;;5075894;28;20050;-96
2022/10/18 06:36:21;;;;;;;27.00;11.77;;;11.50;99.90;;;;;;5058833;28;20047;-96
2022/10/18 06:38:47;;;;;;;24.00;11.85;;;11.00;99.90;;;;;;5075617;28;20048;-96
2022/10/18 06:41:13;;;;;;;23.83;11.65;;;11.00;99.90;;;;;;5075827;28;20048;-96
2022/10/18 06:43:40;;;;;;;17.13;10.60;;;10.90;99.90;;;;;;5058587;28;20044;-96
2022/10/18 06:46:07;;;;;;;26.90;11.27;;;10.90;99.90;;;;;;5092335;28;20098;-96
2022/10/18 06:48:34;;;;;;;23.67;11.35;;;10.90;99.90;;;;;;5092080;28;20043;-96
2022/10/18 06:51:03;;;;;;;20.98;9.90;;;10.90;99.90;;;;;;5075755;28;20078;-96
2022/10/18 06:53:32;;;;;;;18.13;10.25;;;10.90;99.90;;;;;;5092197;28;20130;-96
2022/10/18 06:56:02;;;;;;;13.68;9.23;;;10.90;99.90;;;;;;5091952;28;20474;-96
2022/10/18 06:58:29;;;;;;;19.73;9.43;;;11.20;99.90;;;;;;5092927;28;20071;-96
2022/10/18 07:00:56;;;;;;;30.25;10.63;;;11.70;99.90;;;;;;5092459;28;20498;-96
2022/10/18 07:03:22;;;;;;;20.10;10.10;;;10.80;99.90;;;;;;5093214;28;20047;-96
2022/10/18 07:05:51;;;;;;;20.40;10.55;;;11.30;99.90;;;;;;5070322;28;20044;-96
2022/10/18 07:08:17;;;;;;;23.90;10.65;;;11.70;99.90;;;;;;5093290;28;20027;-96
2022/10/18 07:10:50;;;;;;;20.70;10.27;;;10.80;99.90;;;;;;5106320;28;20024;-96
2022/10/18 07:13:16;;;;;;;17.02;10.75;;;10.80;99.90;;;;;;5105807;28;20047;-96
2022/10/18 07:15:42;;;;;;;26.65;10.73;;;10.80;99.90;;;;;;5065129;28;20047;-96
2022/10/18 07:18:08;;;;;;;19.75;10.63;;;10.80;99.90;;;;;;5068637;28;20218;-96
2022/10/18 07:20:33;;;;;;;22.67;10.70;;;11.40;99.90;;;;;;5075483;28;20036;-96
2022/10/18 07:22:59;;;;;;;24.02;11.48;;;10.90;99.90;;;;;;5058940;28;20229;-96
2022/10/18 07:25:25;;;;;;;22.25;11.65;;;10.90;99.90;;;;;;5075471;28;20445;-95
2022/10/18 07:27:51;;;;;;;20.85;13.10;;;11.00;99.90;;;;;;5074093;28;20067;-96
2022/10/18 07:30:17;;;;;;;29.63;13.38;;;11.00;99.90;;;;;;5074784;28;20059;-96
2022/10/18 07:32:42;;;;;;;30.20;12.80;;;11.30;99.90;;;;;;5057992;28;20028;-96
2022/10/18 07:35:08;;;;;;;18.98;12.32;;;12.00;99.90;;;;;;5057375;28;20043;-96
2022/10/18 07:37:34;;;;;;;29.25;12.30;;;11.30;99.90;;;;;;5058793;28;20138;-93
2022/10/18 07:40:00;;;;;;;19.38;11.00;;;11.60;99.90;;;;;;5057788;28;20047;-95
2022/10/18 07:42:25;;;;;;;23.63;12.32;;;11.40;99.90;;;;;;5057490;28;20043;-93
2022/10/18 07:44:51;;;;;;;21.70;11.93;;;12.50;99.90;;;;;;5058142;28;20067;-96
2022/10/18 07:47:18;;;;;;;16.38;10.18;;;12.00;99.90;;;;;;5058626;28;20495;-96
2022/10/18 07:49:44;;;;;;;20.15;9.60;;;11.70;99.90;;;;;;5057825;28;20044;-96
2022/10/18 07:52:10;;;;;;;17.73;9.88;;;11.80;99.90;;;;;;5057074;28;20047;-96
2022/10/18 07:54:36;;;;;;;17.77;9.73;;;12.20;99.90;;;;;;5058410;28;20078;-96
2022/10/18 07:57:03;;;;;;;20.27;8.65;;;12.10;99.90;;;;;;5073630;28;20043;-96
2022/10/18 07:59:29;;;;;;;15.02;8.25;;;12.30;99.90;;;;;;5091466;28;20056;-96
2022/10/18 08:01:55;;;;;;;21.00;8.10;;;12.40;99.90;;;;;;5061493;28;20046;-96
2022/10/18 08:04:20;;;;;;;18.27;7.68;;;12.40;99.90;;;;;;5058265;28;20130;-96
2022/10/18 08:06:46;;;;;;;12.60;7.07;;;12.70;99.90;;;;;;5057281;28;20387;-96
2022/10/18 08:09:12;;;;;;;13.30;6.65;;;12.40;99.90;;;;;;5059996;28;20040;-96
2022/10/18 08:11:38;;;;;;;13.10;6.82;;;12.40;99.90;;;;;;5062119;28;20066;-96
2022/10/18 08:14:03;;;;;;;12.45;6.18;;;12.40;99.90;;;;;;5081032;28;20123;-96
2022/10/18 08:16:30;;;;;;;10.13;6.57;;;13.10;99.90;;;;;;5059311;28;20047;-96
2022/10/18 08:18:57;;;;;;;8.90;6.65;;;12.50;99.90;;;;;;5096532;28;20051;-96
2022/10/18 08:21:23;;;;;;;14.48;6.65;;;12.50;99.90;;;;;;5100212;28;20075;-96
2022/10/18 08:23:49;;;;;;;12.35;6.32;;;13.10;99.90;;;;;;5082958;28;20086;-96
2022/10/18 08:26:17;;;;;;;13.43;6.63;;;12.80;99.90;;;;;;5081428;28;20039;-96
2022/10/18 08:28:44;;;;;;;11.05;5.38;;;13.00;99.90;;;;;;5099198;28;20100;-96
2022/10/18 08:31:12;;;;;;;13.82;6.75;;;13.20;99.90;;;;;;5094650;28;20075;-96
2022/10/18 08:33:38;;;;;;;22.08;5.75;;;14.30;99.90;;;;;;5094614;28;20028;-96
2022/10/18 08:36:06;;;;;;;12.45;6.38;;;13.50;99.90;;;;;;5058825;28;20062;-96
2022/10/18 08:38:34;;;;;;;7.68;5.20;;;13.70;99.90;;;;;;5091589;28;20336;-96
2022/10/18 08:41:20;;;;;;;12.02;5.95;;;13.80;99.90;;;;;;5090124;28;20056;-96
2022/10/18 08:44:04;;;;;;;12.57;5.88;;;13.90;99.90;;;;;;5090101;28;20142;-96
2022/10/18 08:46:33;;;;;;;11.70;5.60;;;14.00;99.90;;;;;;5091349;28;20487;-96
2022/10/18 08:49:01;;;;;;;14.43;4.93;;;13.90;99.90;;;;;;5089954;28;20035;-96
2022/10/18 08:51:41;;;;;;;12.65;4.30;;;13.90;99.90;;;;;;5073457;28;20079;-95
2022/10/18 08:54:14;;;;;;;11.10;3.97;;;14.50;99.90;;;;;;5091770;28;20055;-96
2022/10/18 08:56:45;;;;;;;13.00;2.83;;;14.00;99.90;;;;;;5094274;28;20047;-96
2022/10/18 08:59:12;;;;;;;22.33;5.75;;;14.10;99.90;;;;;;5094856;28;20475;-96
2022/10/18 09:02:04;;;;;;;16.05;2.33;;;14.20;99.90;;;;;;5094366;28;20491;-96
2022/10/18 09:04:58;;;;;;;17.30;2.88;;;14.20;99.90;;;;;;5094793;28;20111;-95
2022/10/18 09:07:32;;;;;;;9.60;2.40;;;14.30;99.90;;;;;;5094199;28;20085;-93
2022/10/18 09:10:20;;;;;;;16.25;2.78;;;15.30;99.90;;;;;;5093484;28;20039;-94
2022/10/18 09:13:07;;;;;;;12.02;2.00;;;14.40;99.90;;;;;;5094541;28;20263;-95
2022/10/18 09:15:44;;;;;;;14.88;2.75;;;14.50;99.90;;;;;;5093510;28;20056;-95
2022/10/18 09:19:01;;;;;;;8.25;2.10;;;14.60;99.90;;;;;;5094137;28;20121;-94
2022/10/18 09:21:48;;;;;;;16.95;2.90;;;14.60;99.90;;;;;;5078573;28;20086;-94
2022/10/18 09:24:33;;;;;;;11.57;2.15;;;14.70;99.90;;;;;;5101767;28;20043;-95
2022/10/18 09:27:14;;;;;;;17.63;2.42;;;14.80;99.90;;;;;;5104402;28;20035;-92
2022/10/18 09:29:58;;;;;;;10.82;2.25;;;14.80;99.90;;;;;;5105447;28;20048;-94
2022/10/18 09:32:50;;;;;;;10.27;2.25;;;15.00;99.90;;;;;;5099650;28;20528;-96
2022/10/18 09:35:21;;;;;;;14.05;1.98;;;15.00;99.90;;;;;;5094701;28;20066;-93
2022/10/18 09:37:49;;;;;;;15.85;2.30;;;15.10;99.90;;;;;;5094314;28;20031;-96
2022/10/18 09:40:25;;;;;;;12.73;2.13;;;15.20;99.90;;;;;;5092495;28;20495;-95
2022/10/18 09:42:57;;;;;;;10.98;2.03;;;15.20;99.90;;;;;;5094374;28;20059;-95
2022/10/18 09:45:34;;;;;;;15.77;3.03;;;15.30;99.90;;;;;;5092890;28;20126;-96
2022/10/18 09:48:18;;;;;;;13.93;3.03;;;15.30;99.90;;;;;;5093544;28;20053;-95
2022/10/18 09:50:54;;;;;;;13.23;2.17;;;15.40;99.90;;;;;;5094433;28;20055;-95
2022/10/18 09:53:36;;;;;;;15.32;3.65;;;15.50;99.90;;;;;;5092195;28;20100;-95
2022/10/18 09:56:28;;;;;;;8.98;1.92;;;15.60;99.90;;;;;;5093572;28;20050;-95
2022/10/18 09:58:53;;;;;;;15.40;3.00;;;15.60;99.90;;;;;;5092530;28;20058;-93
2022/10/18 10:01:26;;;;;;;14.18;2.05;;;15.70;99.90;;;;;;5075584;28;20130;-93
2022/10/18 10:03:52;;;;;;;8.15;1.65;;;15.80;99.90;;;;;;5094268;28;20044;-93
2022/10/18 10:06:28;;;;;;;27.25;2.72;;;15.80;99.90;;;;;;5093738;28;20044;-93
2022/10/18 10:09:05;;;;;;;16.10;2.13;;;15.90;99.90;;;;;;5104974;28;20044;-93
2022/10/18 10:11:33;;;;;;;27.35;3.05;;;16.00;99.90;;;;;;5097037;28;20042;-93
2022/10/18 10:14:12;;;;;;;11.60;1.98;;;16.00;99.90;;;;;;5097419;28;20044;-94
2022/10/18 10:17:02;;;;;;;14.18;2.00;;;16.10;99.90;;;;;;5099135;28;20039;-93
2022/10/18 10:19:28;;;;;;;13.35;1.80;;;16.20;99.90;;;;;;5093303;28;20518;-92
2022/10/18 10:22:01;;;;;;;17.48;2.42;;;16.30;99.90;;;;;;5096984;28;20135;-92
2022/10/18 10:24:36;;;;;;;10.80;2.17;;;16.40;99.90;;;;;;5094620;28;20043;-92
2022/10/18 10:27:05;;;;;;;9.65;1.75;;;16.50;99.90;;;;;;5094776;28;20494;-94
2022/10/18 10:29:48;;;;;;;16.00;2.28;;;16.60;99.90;;;;;;5097613;28;20099;-95
2022/10/18 10:32:16;;;;;;;13.40;1.80;;;16.50;99.90;;;;;;5111114;28;20067;-93
2022/10/18 10:34:42;;;;;;;16.38;2.20;;;16.50;99.90;;;;;;5114430;28;20028;-93
2022/10/18 10:37:30;;;;;;;7.82;1.45;;;16.50;99.90;;;;;;5093985;28;20067;-93
2022/10/18 10:40:13;;;;;;;11.57;1.73;;;17.10;99.90;;;;;;5111125;28;20062;-92
2022/10/18 10:43:00;;;;;;;14.02;1.35;;;16.50;99.90;;;;;;5104564;28;20081;-94
2022/10/18 10:45:35;;;;;;;13.63;1.60;;;16.70;99.90;;;;;;5092270;28;20051;-94
2022/10/18 10:48:05;;;;;;;11.57;1.70;;;16.80;99.90;;;;;;5093392;28;20123;-92
2022/10/18 10:50:45;;;;;;;9.85;1.67;;;16.90;99.90;;;;;;5093867;28;20032;-94
2022/10/18 10:53:56;;;;;;;11.38;1.65;;;16.80;99.90;;;;;;5077380;28;20044;-94
2022/10/18 10:56:28;;;;;;;14.93;1.63;;;16.70;99.90;;;;;;5093436;28;20542;-94
2022/10/18 10:59:07;;;;;;;9.13;1.40;;;16.60;99.90;;;;;;5092475;28;20499;-94
2022/10/18 11:01:33;;;;;;;14.60;2.38;;;16.60;99.90;;;;;;5090848;28;20103;-94
2022/10/18 11:04:03;;;;;;;15.85;1.83;;;16.60;99.90;;;;;;5076079;28;20094;-94
2022/10/18 11:06:32;;;;;;;9.43;1.85;;;16.70;99.90;;;;;;5090349;28;20043;-93
2022/10/18 11:09:02;;;;;;;12.70;3.00;;;16.80;99.90;;;;;;5092265;28;20082;-93
2022/10/18 11:11:37;;;;;;;13.70;1.85;;;17.00;99.90;;;;;;5091161;28;20040;-93
2022/10/18 11:14:28;;;;;;;11.70;1.95;;;17.20;99.90;;;;;;5091233;28;20040;-93
2022/10/18 11:17:16;;;;;;;12.18;1.45;;;17.30;99.90;;;;;;5092070;28;20124;-93
2022/10/18 11:20:00;;;;;;;11.43;1.58;;;17.20;99.90;;;;;;5090395;28;20043;-93
2022/10/18 11:22:33;;;;;;;12.10;2.42;;;17.00;99.90;;;;;;5091623;28;20044;-92
2022/10/18 11:25:00;;;;;;;10.48;2.30;;;16.80;99.90;;;;;;5091586;28;20134;-93
2022/10/18 11:27:33;;;;;;;10.50;1.50;;;16.30;99.90;;;;;;5089994;28;20093;-92
2022/10/18 11:30:12;;;;;;;12.70;1.83;;;16.90;99.90;;;;;;5091839;28;20226;-93
2022/10/18 11:32:52;;;;;;;7.35;1.80;;;17.00;99.90;;;;;;5090471;28;20039;-92
2022/10/18 11:35:39;;;;;;;10.65;1.60;;;17.00;99.90;;;;;;5092928;28;20039;-91
2022/10/18 11:38:11;;;;;;;15.98;3.03;;;17.00;99.90;;;;;;5101433;28;20136;-91
2022/10/18 11:40:40;;;;;;;10.23;1.27;;;17.00;99.90;;;;;;5102012;28;20048;-92
2022/10/18 11:43:15;;;;;;;12.05;2.05;;;17.00;99.90;;;;;;5103802;28;20043;-93
2022/10/18 11:45:56;;;;;;;8.02;1.92;;;17.20;99.90;;;;;;5101916;28;20054;-91
2022/10/18 11:48:45;;;;;;;13.13;1.83;;;17.40;99.90;;;;;;5103722;28;20055;-93
2022/10/18 11:51:36;;;;;;;13.20;1.65;;;17.50;99.90;;;;;;5103368;28;20514;-92
2022/10/18 11:54:13;;;;;;;10.30;1.52;;;16.90;99.90;;;;;;5095158;28;20111;-93
2022/10/18 11:57:08;;;;;;;15.35;1.60;;;16.80;99.90;;;;;;5112891;28;20044;-92
2022/10/18 11:59:59;;;;;;;8.23;1.08;;;17.40;99.90;;;;;;5093853;28;20043;-93
2022/10/18 12:02:59;;;;;;;11.70;1.63;;;17.50;99.90;;;;;;5093809;28;20063;-91
2022/10/18 12:05:26;;;;;;;11.88;1.48;;;17.60;99.90;;;;;;5095169;28;20442;-92
2022/10/18 12:08:05;;;;;;;8.02;1.30;;;17.20;99.90;;;;;;5061232;28;20187;-93
2022/10/18 12:10:32;;;;;;;9.85;1.70;;;18.20;99.90;;;;;;5111287;28;20059;-92
2022/10/18 12:13:02;;;;;;;9.55;2.03;;;17.80;99.90;;;;;;5078128;28;20479;-92
2022/10/18 12:15:30;;;;;;;13.85;2.20;;;17.80;99.90;;;;;;5094268;28;20131;-91
2022/10/18 12:18:05;;;;;;;9.80;1.33;;;17.80;99.90;;;;;;5078383;28;20043;-92
2022/10/18 12:20:32;;;;;;;8.75;2.33;;;17.60;99.90;;;;;;5093265;28;20039;-93
2022/10/18 12:23:08;;;;;;;9.40;1.52;;;17.50;99.90;;;;;;5093665;28;20047;-92
2022/10/18 12:25:38;;;;;;;6.35;1.10;;;17.50;99.90;;;;;;5094357;28;20047;-92
2022/10/18 12:28:37;;;;;;;6.43;1.35;;;17.60;99.90;;;;;;5096082;28;20040;-93
2022/10/18 12:31:11;;;;;;;13.88;1.23;;;17.70;99.90;;;;;;5095551;28;20130;-92
2022/10/18 12:33:45;;;;;;;9.25;1.23;;;17.90;99.90;;;;;;5094798;28;20035;-92
2022/10/18 12:36:20;;;;;;;12.88;1.70;;;18.00;99.90;;;;;;5096623;28;20048;-92
2022/10/18 12:38:58;;;;;;;14.30;1.42;;;18.20;99.90;;;;;;5096361;28;20050;-93
2022/10/18 12:41:31;;;;;;;8.07;1.58;;;18.20;99.90;;;;;;5077542;28;20051;-92
2022/10/18 12:44:17;;;;;;;10.00;1.70;;;18.30;99.90;;;;;;5093917;28;20039;-92
2022/10/18 12:46:45;;;;;;;7.82;1.55;;;18.40;99.90;;;;;;5097702;28;20047;-93
2022/10/18 12:49:13;;;;;;;13.20;1.95;;;18.40;99.90;;;;;;5101535;28;20035;-94
2022/10/18 12:52:17;;;;;;;13.38;1.45;;;18.60;99.90;;;;;;5103604;28;20042;-93